M I D A S
Marine Information and Data Acquisition System
Tripno 1825 of the Zeeleeuw from 2009-12-14 07:26:12 to 2009-12-14 14:51:29
Back to CruiseResearch ActivitiesStationsMapUnderway DataData graphs

EquipmentUnitsComment
TimeDGPSUTC
LatitudeDGPSDM.mWGS84
LongitudeDGPSDM.mWGS84
HeadingGyrodeg 
SOGDGPSknotsSpeed over ground
COGDGPSdegCourse over ground
DepthEcho soundermeters200 kHz
Missing or incorrect values are displayed as -999
Navigation data collected by the RV Zeeleeuw from 2009-12-14 07:28:33 to 2009-12-14 15:00:18
                                                                                    Next 1000 lines
Time Latitude Longitude Heading SOG COG Depth
2009-12-14 07:28:44 51°13.662 2°55.956 109.5 0.9 289 5.6
2009-12-14 07:28:48 51°13.662 2°55.954 109.5 1.1 292 7.6
2009-12-14 07:28:53 51°13.663 2°55.951 109.5 1.4 293 7.6
2009-12-14 07:28:58 51°13.665 2°55.947 109.5 1.6 294 7.6
2009-12-14 07:29:04 51°13.666 2°55.943 109.1 1.9 291 -999
2009-12-14 07:29:10 51°13.667 2°55.938 108.5 2.2 292 -999
2009-12-14 07:29:16 51°13.669 2°55.931 107.7 2.6 290 -999
2009-12-14 07:29:21 51°13.67 2°55.926 107.1 2.8 289 -999
2009-12-14 07:29:27 51°13.671 2°55.918 106.7 3 288 -999
2009-12-14 07:29:32 51°13.673 2°55.912 106.5 3.2 288 -999
2009-12-14 07:29:37 51°13.674 2°55.905 106.4 3.4 287 -999
2009-12-14 07:29:42 51°13.675 2°55.897 106.4 3.5 288 -999
2009-12-14 07:29:47 51°13.677 2°55.89 107 3.6 288 -999
2009-12-14 07:29:52 51°13.678 2°55.882 107.7 3.7 289 -999
2009-12-14 07:29:57 51°13.68 2°55.874 108.5 3.8 289 -999
2009-12-14 07:30:02 51°13.682 2°55.866 108.8 3.7 291 -999
2009-12-14 07:30:07 51°13.684 2°55.859 109 3.6 290 -999
2009-12-14 07:30:12 51°13.686 2°55.851 108.9 3.7 291 -999
2009-12-14 07:30:17 51°13.687 2°55.843 108.2 3.8 290 -999
2009-12-14 07:30:22 51°13.689 2°55.836 107.4 3.8 289 -999
2009-12-14 07:30:27 51°13.691 2°55.828 106.4 3.7 288 -999
2009-12-14 07:30:32 51°13.692 2°55.82 104.9 3.7 288 -999
2009-12-14 07:30:37 51°13.694 2°55.812 103.2 3.6 286 -999
2009-12-14 07:30:42 51°13.695 2°55.805 101.5 3.5 285 -999
2009-12-14 07:30:47 51°13.696 2°55.798 99.2 3.4 282 -999
2009-12-14 07:30:52 51°13.697 2°55.791 96.9 3.2 281 -999
2009-12-14 07:30:57 51°13.697 2°55.784 93.9 3.1 279 -999
2009-12-14 07:31:02 51°13.698 2°55.778 91.5 2.9 276 -999
2009-12-14 07:31:07 51°13.698 2°55.771 89.7 2.9 275 -999
2009-12-14 07:31:12 51°13.698 2°55.766 87.5 2.7 274 -999
2009-12-14 07:31:17 51°13.699 2°55.76 86.2 2.6 274 -999
2009-12-14 07:31:22 51°13.699 2°55.755 85.5 2.4 274 -999
2009-12-14 07:31:27 51°13.699 2°55.75 84.8 1.8 274 4.6
2009-12-14 07:31:32 51°13.699 2°55.747 83.4 1.4 273 -999
2009-12-14 07:31:37 51°13.699 2°55.745 81.1 1.2 277 4.6
2009-12-14 07:31:41 51°13.699 2°55.743 78 1 276 4.7
2009-12-14 07:31:47 51°13.699 2°55.74 75.6 0.9 278 4.6
2009-12-14 07:31:52 51°13.699 2°55.739 72.7 0.7 277 13.2
2009-12-14 07:31:57 51°13.7 2°55.737 69.9 0.6 289 13.1
2009-12-14 07:32:01 51°13.7 2°55.737 67.6 0.5 303 13.5
2009-12-14 07:32:07 51°13.701 2°55.737 65.3 0.5 357 13.1
2009-12-14 07:32:12 51°13.702 2°55.737 63 0.8 28 13.5
2009-12-14 07:32:17 51°13.703 2°55.739 58.7 1.1 32 13.4
2009-12-14 07:32:21 51°13.704 2°55.74 53.1 1.4 32 13.1
2009-12-14 07:32:26 51°13.707 2°55.742 46.5 1.8 27 13.1
2009-12-14 07:32:31 51°13.709 2°55.744 41 1.9 26 13.5
2009-12-14 07:32:36 51°13.711 2°55.745 33 1.7 16 -999
2009-12-14 07:32:41 51°13.713 2°55.746 27.2 1.5 15 13.1
2009-12-14 07:32:45 51°13.714 2°55.746 23.7 0.9 13 -999
2009-12-14 07:32:50 51°13.715 2°55.746 20.3 0.3 358 13.1
2009-12-14 07:32:56 51°13.715 2°55.746 16.8 0.3 221 13.6
2009-12-14 07:33:01 51°13.714 2°55.745 13.4 0.5 208 13.5
2009-12-14 07:33:06 51°13.713 2°55.745 10.2 0.8 197 13.4
2009-12-14 07:33:11 51°13.712 2°55.744 8.5 1.1 195 13.2
2009-12-14 07:33:16 51°13.71 2°55.743 6.8 1.3 191 13.5
2009-12-14 07:33:21 51°13.708 2°55.743 5.5 1.7 192 -999
2009-12-14 07:33:27 51°13.705 2°55.742 4.2 1.8 192 -999
2009-12-14 07:33:32 51°13.703 2°55.741 3 1.6 191 -999
2009-12-14 07:33:37 51°13.701 2°55.74 2.7 1.3 196 -999
2009-12-14 07:33:42 51°13.7 2°55.74 2.4 0.6 205 -999
2009-12-14 07:33:47 51°13.7 2°55.739 0.5 0.4 301 -999
2009-12-14 07:33:52 51°13.701 2°55.738 356.1 0.8 336 -999
2009-12-14 07:33:57 51°13.703 2°55.737 350.7 1.4 332 -999
2009-12-14 07:34:02 51°13.705 2°55.735 344.8 2.1 339 -999
2009-12-14 07:34:07 51°13.709 2°55.732 339 3.1 331 -999
2009-12-14 07:34:12 51°13.713 2°55.728 335.4 3.7 335 -999
2009-12-14 07:34:17 51°13.719 2°55.724 334 4.3 331 12.6
2009-12-14 07:34:21 51°13.723 2°55.72 333.4 4.7 334 4.7
2009-12-14 07:34:26 51°13.73 2°55.715 333.2 5.2 332 12
2009-12-14 07:34:32 51°13.738 2°55.708 332.6 5.6 332 12.1
2009-12-14 07:34:36 51°13.744 2°55.703 332.3 6 332 12.1
2009-12-14 07:34:41 51°13.752 2°55.697 332.5 6.2 332 12.1
2009-12-14 07:34:45 51°13.758 2°55.692 333 6.4 333 12
2009-12-14 07:34:51 51°13.767 2°55.683 333.2 6.6 331 11.7
2009-12-14 07:34:55 51°13.774 2°55.678 332.6 6.7 333 11.8
2009-12-14 07:35:00 51°13.782 2°55.671 332.5 6.8 332 11.8
2009-12-14 07:35:05 51°13.791 2°55.664 332.7 7 333 11.8
2009-12-14 07:35:09 51°13.798 2°55.659 333.2 7.1 333 11.8
2009-12-14 07:35:14 51°13.807 2°55.651 333.5 7.3 333 12.2
2009-12-14 07:35:19 51°13.816 2°55.644 333.5 7.5 334 11.8
2009-12-14 07:35:24 51°13.826 2°55.637 333.5 7.6 334 11.8
2009-12-14 07:35:29 51°13.835 2°55.629 333.8 7.7 334 11.8
2009-12-14 07:35:33 51°13.843 2°55.623 334.2 7.8 335 11.6
2009-12-14 07:35:38 51°13.853 2°55.616 334.5 8 334 11.7
2009-12-14 07:35:44 51°13.865 2°55.606 334 8.1 334 11.7
2009-12-14 07:35:49 51°13.875 2°55.598 334 8.1 334 11.7
2009-12-14 07:35:53 51°13.884 2°55.592 334.3 8.2 334 11.3
2009-12-14 07:35:58 51°13.894 2°55.584 334.4 8.3 335 11.9
2009-12-14 07:36:04 51°13.906 2°55.575 335 8.3 335 11.6
2009-12-14 07:36:09 51°13.917 2°55.567 334.6 8.3 334 11.5
2009-12-14 07:36:13 51°13.925 2°55.56 333.8 8.3 334 11.7
2009-12-14 07:36:19 51°13.938 2°55.551 333.8 8.5 334 11.6
2009-12-14 07:36:24 51°13.949 2°55.542 333.8 8.6 334 11.6
2009-12-14 07:36:29 51°13.959 2°55.534 334 8.6 333 11.6
2009-12-14 07:36:33 51°13.968 2°55.527 334.1 8.7 334 11.6
2009-12-14 07:36:39 51°13.981 2°55.517 334.2 8.8 333 11.6
2009-12-14 07:36:44 51°13.992 2°55.508 334 8.9 334 11.5
2009-12-14 07:36:49 51°14.003 2°55.499 334 8.9 334 11.2
2009-12-14 07:36:53 51°14.012 2°55.493 334.5 9 335 11.1
2009-12-14 07:36:59 51°14.026 2°55.483 335.6 9 335 11.1
2009-12-14 07:37:04 51°14.037 2°55.474 335.4 9.1 334 11.1
2009-12-14 07:37:08 51°14.046 2°55.466 334.2 9.2 333 11
2009-12-14 07:37:14 51°14.06 2°55.456 334.2 9.2 334 11
2009-12-14 07:37:18 51°14.069 2°55.449 334.6 9.3 334 11
2009-12-14 07:37:24 51°14.083 2°55.437 334.4 9.3 333 10.7
2009-12-14 07:37:29 51°14.095 2°55.428 334.5 9.4 334 11
2009-12-14 07:37:33 51°14.104 2°55.421 334.7 9.3 333 10.3
2009-12-14 07:37:39 51°14.118 2°55.41 334.1 9.3 332 11
2009-12-14 07:37:44 51°14.13 2°55.4 333.4 9.4 333 11.1
2009-12-14 07:37:48 51°14.139 2°55.392 333.6 9.5 333 11.1
2009-12-14 07:37:53 51°14.151 2°55.382 333.3 9.5 331 11.2
2009-12-14 07:37:59 51°14.164 2°55.369 331.7 9.6 330 11
2009-12-14 07:38:04 51°14.175 2°55.358 330.2 9.5 328 11
2009-12-14 07:38:09 51°14.186 2°55.347 328.7 9.5 326 11.1
2009-12-14 07:38:13 51°14.195 2°55.337 326.8 9.6 324 10.7
2009-12-14 07:38:18 51°14.206 2°55.324 325.1 9.6 323 11
2009-12-14 07:38:24 51°14.218 2°55.308 323.4 9.6 321 11
2009-12-14 07:38:29 51°14.228 2°55.294 321.7 9.7 320 10.9
2009-12-14 07:38:33 51°14.236 2°55.282 320.2 9.7 318 11
2009-12-14 07:38:38 51°14.246 2°55.268 318.9 9.8 317 10.9
2009-12-14 07:38:44 51°14.258 2°55.249 317.3 9.8 315 10.9
2009-12-14 07:38:49 51°14.268 2°55.233 315.6 10 314 11.1
2009-12-14 07:38:53 51°14.275 2°55.22 313.7 10.1 312 11
2009-12-14 07:38:59 51°14.285 2°55.199 311.5 10.2 309 11
2009-12-14 07:39:04 51°14.294 2°55.181 310 10.3 309 10.7
2009-12-14 07:39:08 51°14.301 2°55.167 309.2 10.3 308 10.6
2009-12-14 07:39:13 51°14.31 2°55.149 308 10.3 306 10.9
2009-12-14 07:39:19 51°14.32 2°55.127 307.6 10.3 307 10.7
2009-12-14 07:39:24 51°14.329 2°55.108 307.8 10.4 307 10.8
2009-12-14 07:39:29 51°14.337 2°55.089 306.6 10.6 306 10.9
2009-12-14 07:39:33 51°14.344 2°55.074 306.4 10.6 306 10.9
2009-12-14 07:39:39 51°14.355 2°55.051 306.8 10.7 306 10.7
2009-12-14 07:39:44 51°14.363 2°55.032 305.7 10.8 304 10.4
2009-12-14 07:39:49 51°14.372 2°55.011 304.2 10.8 304 10.1
2009-12-14 07:39:53 51°14.379 2°54.996 305 10.8 308 9.9
2009-12-14 07:39:59 51°14.391 2°54.975 308.5 10.8 312 10.3
2009-12-14 07:40:04 51°14.402 2°54.958 312.6 10.8 314 10.2
2009-12-14 07:40:09 51°14.412 2°54.941 315 10.8 316 10.5
2009-12-14 07:40:13 51°14.421 2°54.928 317 10.9 317 10.6
2009-12-14 07:40:19 51°14.435 2°54.909 319.4 10.9 319 10.7
2009-12-14 07:40:24 51°14.446 2°54.892 320.6 11 318 10.9
2009-12-14 07:40:29 51°14.457 2°54.876 319.7 11.1 317 11
2009-12-14 07:40:33 51°14.466 2°54.863 319.8 11.1 319 10.7
2009-12-14 07:40:38 51°14.479 2°54.848 323.1 11.1 324 10.9
2009-12-14 07:40:44 51°14.494 2°54.831 326.9 11 326 10.7
2009-12-14 07:40:49 51°14.507 2°54.818 329 11.1 326 10.8
2009-12-14 07:40:53 51°14.517 2°54.806 329 11.1 325 10.6
2009-12-14 07:40:58 51°14.529 2°54.792 327.4 11.2 323 10.7
2009-12-14 07:41:04 51°14.544 2°54.775 328.2 11.1 327 10.6
2009-12-14 07:41:09 51°14.557 2°54.761 328.9 11.2 324 10.6
2009-12-14 07:41:14 51°14.57 2°54.747 329 11.3 326 10.4
2009-12-14 07:41:18 51°14.58 2°54.735 328.9 11.3 324 10.6
2009-12-14 07:41:24 51°14.595 2°54.718 328.6 11.2 325 10.4
2009-12-14 07:41:29 51°14.608 2°54.704 328.2 11.2 324 10.5
2009-12-14 07:41:34 51°14.621 2°54.689 327.7 11.2 324 10.4
2009-12-14 07:41:38 51°14.631 2°54.677 327.8 11.3 324 10.4
2009-12-14 07:41:44 51°14.646 2°54.66 328 11.3 325 10.4
2009-12-14 07:41:49 51°14.659 2°54.646 328.8 11.2 325 10.3
2009-12-14 07:41:53 51°14.669 2°54.634 328.9 11.2 326 10.5
2009-12-14 07:41:59 51°14.685 2°54.618 329.8 11.2 327 10.4
2009-12-14 07:42:04 51°14.698 2°54.605 330.6 11.3 327 10.3
2009-12-14 07:42:09 51°14.711 2°54.591 331.2 11.2 328 10.3
2009-12-14 07:42:13 51°14.721 2°54.581 331.7 11.2 328 10.4
2009-12-14 07:42:19 51°14.737 2°54.565 331.9 11.2 328 10.3
2009-12-14 07:42:24 51°14.75 2°54.552 332.1 11.2 328 10.3
2009-12-14 07:42:29 51°14.764 2°54.539 332.3 11.3 329 10.2
2009-12-14 07:42:33 51°14.775 2°54.529 332.5 11.2 329 10.1
2009-12-14 07:42:39 51°14.79 2°54.514 333.2 11.2 330 10.3
2009-12-14 07:42:44 51°14.804 2°54.502 333.7 11.2 330 10.3
2009-12-14 07:42:49 51°14.817 2°54.49 334.2 11.2 331 10.3
2009-12-14 07:42:53 51°14.828 2°54.48 334.7 11.1 331 10.1
2009-12-14 07:42:58 51°14.842 2°54.468 334.8 11.2 331 10.2
2009-12-14 07:43:04 51°14.858 2°54.454 334.8 11.2 331 10.2
2009-12-14 07:43:09 51°14.872 2°54.442 335 11.1 331 10
2009-12-14 07:43:13 51°14.882 2°54.432 334.9 11.1 330 10
2009-12-14 07:43:19 51°14.898 2°54.418 334.7 11.1 331 10
2009-12-14 07:43:24 51°14.912 2°54.406 334.7 11.1 331 9.8
2009-12-14 07:43:29 51°14.925 2°54.394 334.8 11.1 331 9.6
2009-12-14 07:43:33 51°14.936 2°54.384 334.8 11.1 330 9.3
2009-12-14 07:43:39 51°14.952 2°54.37 334.7 11 330 9.1
2009-12-14 07:43:44 51°14.965 2°54.358 334.6 11 330 9.1
2009-12-14 07:43:48 51°14.976 2°54.348 334.4 11 330 9.3
2009-12-14 07:43:53 51°14.989 2°54.336 334.7 11 330 8.8
2009-12-14 07:43:59 51°15.005 2°54.321 334.7 10.9 330 9
2009-12-14 07:44:04 51°15.018 2°54.309 334.9 10.9 330 8.6
2009-12-14 07:44:08 51°15.028 2°54.299 334.9 10.9 329 9
2009-12-14 07:44:13 51°15.041 2°54.286 334.5 11 329 8.8
2009-12-14 07:44:18 51°15.054 2°54.274 334.6 10.9 330 9.3
2009-12-14 07:44:24 51°15.07 2°54.26 335.4 10.9 330 9.2
2009-12-14 07:44:29 51°15.083 2°54.248 335.7 11 330 8.9
2009-12-14 07:44:33 51°15.093 2°54.238 335.6 11 330 9.3
2009-12-14 07:44:39 51°15.109 2°54.223 335.7 11 330 9.6
2009-12-14 07:44:44 51°15.123 2°54.212 335.7 11 330 10
2009-12-14 07:44:48 51°15.133 2°54.202 335.5 11 331 10.2
2009-12-14 07:44:53 51°15.147 2°54.19 335.5 11 331 10.6
2009-12-14 07:44:59 51°15.162 2°54.176 335.5 11 331 10.7
2009-12-14 07:45:04 51°15.176 2°54.164 335.3 10.9 331 10.9
2009-12-14 07:45:09 51°15.189 2°54.152 335.3 11 331 11
2009-12-14 07:45:13 51°15.2 2°54.143 335.1 11.1 330 10.8
2009-12-14 07:45:19 51°15.216 2°54.128 335 11 331 11
2009-12-14 07:45:24 51°15.229 2°54.116 335 11 330 11
2009-12-14 07:45:29 51°15.242 2°54.104 334.9 11 331 11
2009-12-14 07:45:34 51°15.255 2°54.092 334.9 11 330 11.2
2009-12-14 07:45:38 51°15.266 2°54.082 334.8 11 330 11
2009-12-14 07:45:44 51°15.282 2°54.067 334.7 10.9 330 10.9
2009-12-14 07:45:49 51°15.295 2°54.056 334.7 11 330 11.2
2009-12-14 07:45:54 51°15.308 2°54.044 335.2 11 331 11.2
2009-12-14 07:45:58 51°15.319 2°54.034 335.3 11 331 11.1
2009-12-14 07:46:04 51°15.335 2°54.02 335.5 11 331 11.3
2009-12-14 07:46:09 51°15.348 2°54.008 335.4 11 330 11.4
2009-12-14 07:46:13 51°15.359 2°53.998 335.2 11 331 11.3
2009-12-14 07:46:19 51°15.375 2°53.984 335.3 11 331 11.4
2009-12-14 07:46:24 51°15.388 2°53.972 335.5 11.1 331 11.5
2009-12-14 07:46:28 51°15.399 2°53.962 335.5 11 331 11.3
2009-12-14 07:46:33 51°15.412 2°53.95 335.3 11 330 11.6
2009-12-14 07:46:39 51°15.428 2°53.936 335.3 11 331 11.4
2009-12-14 07:46:44 51°15.441 2°53.924 335.3 11.1 330 11.7
2009-12-14 07:46:49 51°15.455 2°53.912 335.2 11 330 11.6
2009-12-14 07:46:53 51°15.465 2°53.902 335.1 11.1 330 11.6
2009-12-14 07:46:58 51°15.478 2°53.889 334.7 11 330 11.7
2009-12-14 07:47:04 51°15.494 2°53.875 334.8 11.1 330 11.7
2009-12-14 07:47:08 51°15.505 2°53.865 335.1 11.1 330 11.8
2009-12-14 07:47:13 51°15.518 2°53.853 334.9 11 330 11.8
2009-12-14 07:47:19 51°15.534 2°53.839 335.1 11 330 11.8
2009-12-14 07:47:24 51°15.547 2°53.827 335.1 11 330 11.7
2009-12-14 07:47:29 51°15.561 2°53.815 335.2 11 331 11.8
2009-12-14 07:47:33 51°15.571 2°53.805 335.3 11 331 11.8
2009-12-14 07:47:39 51°15.588 2°53.791 335.3 11 331 11.8
2009-12-14 07:47:44 51°15.601 2°53.779 335.4 11.1 331 11.9
2009-12-14 07:47:49 51°15.614 2°53.767 335.2 11 330 11.9
2009-12-14 07:47:53 51°15.625 2°53.757 335.1 11 331 12
2009-12-14 07:47:59 51°15.641 2°53.743 335.4 11.1 331 12
2009-12-14 07:48:04 51°15.654 2°53.731 335.4 11 331 11.8
2009-12-14 07:48:08 51°15.665 2°53.722 335.4 10.9 330 11.9
2009-12-14 07:48:14 51°15.681 2°53.707 334.9 11 330 12.3
2009-12-14 07:48:18 51°15.691 2°53.698 334.8 11 332 11.7
2009-12-14 07:48:24 51°15.708 2°53.684 335.4 11 332 11.8
2009-12-14 07:48:29 51°15.721 2°53.672 335.6 11 331 11.8
2009-12-14 07:48:33 51°15.732 2°53.663 335.2 11 331 12
2009-12-14 07:48:39 51°15.748 2°53.649 335.2 11.1 331 12
2009-12-14 07:48:44 51°15.761 2°53.637 335.3 11.1 331 12
2009-12-14 07:48:48 51°15.772 2°53.628 335.3 11 331 11.9
2009-12-14 07:48:53 51°15.785 2°53.616 335.6 11 332 12
2009-12-14 07:48:59 51°15.802 2°53.602 336.1 11.1 332 12.1
2009-12-14 07:49:04 51°15.815 2°53.591 336.1 11 332 11.9
2009-12-14 07:49:09 51°15.828 2°53.579 335.7 11 332 11.9
2009-12-14 07:49:13 51°15.839 2°53.57 335.9 11 333 12.2
2009-12-14 07:49:18 51°15.853 2°53.559 336.2 10.9 332 12
2009-12-14 07:49:24 51°15.869 2°53.544 335.3 11 332 12.4
2009-12-14 07:49:29 51°15.882 2°53.533 335.4 11 332 12
2009-12-14 07:49:33 51°15.893 2°53.523 335.4 11 331 12.3
2009-12-14 07:49:38 51°15.906 2°53.511 334.9 11 331 12.1
2009-12-14 07:49:44 51°15.922 2°53.497 334.6 11 330 12.2
2009-12-14 07:49:49 51°15.935 2°53.486 335.1 11 331 12.2
2009-12-14 07:49:53 51°15.946 2°53.476 334.9 11 330 12.2
2009-12-14 07:49:59 51°15.962 2°53.461 334.7 11 331 12.1
2009-12-14 07:50:04 51°15.975 2°53.449 335 11 331 12.4
2009-12-14 07:50:09 51°15.988 2°53.438 335.3 11 331 12.2
2009-12-14 07:50:13 51°15.999 2°53.428 335.2 11.1 331 12.3
2009-12-14 07:50:18 51°16.012 2°53.416 335 11.1 331 12.3
2009-12-14 07:50:24 51°16.029 2°53.401 335 11.1 330 12.2
2009-12-14 07:50:29 51°16.042 2°53.389 334.7 11 330 12.3
2009-12-14 07:50:33 51°16.053 2°53.379 335 11.1 331 12.3
2009-12-14 07:50:38 51°16.066 2°53.367 335.2 11.1 329 12.3
2009-12-14 07:50:44 51°16.082 2°53.352 334.7 11 330 12.4
2009-12-14 07:50:48 51°16.092 2°53.343 334.7 11.1 330 12.5
2009-12-14 07:50:53 51°16.106 2°53.331 334.8 11 330 12.4
2009-12-14 07:50:58 51°16.119 2°53.319 335.1 11 330 12.4
2009-12-14 07:51:04 51°16.135 2°53.304 335.2 11 331 12.5
2009-12-14 07:51:08 51°16.146 2°53.295 335.4 11 331 12.5
2009-12-14 07:51:13 51°16.159 2°53.283 335.6 11 331 12.4
2009-12-14 07:51:19 51°16.175 2°53.268 335.4 11 330 12.7
2009-12-14 07:51:24 51°16.188 2°53.257 335.2 11 331 12.3
2009-12-14 07:51:29 51°16.202 2°53.245 335.2 11 331 12.5
2009-12-14 07:51:33 51°16.212 2°53.235 335.1 11 331 12.6
2009-12-14 07:51:38 51°16.226 2°53.224 335.2 11 331 12.5
2009-12-14 07:51:44 51°16.242 2°53.21 335.4 11 331 12.5
2009-12-14 07:51:49 51°16.255 2°53.198 335.4 11 331 12.7
2009-12-14 07:51:53 51°16.266 2°53.189 335.2 11 331 12.6
2009-12-14 07:51:58 51°16.279 2°53.177 335.2 11 331 12.7
2009-12-14 07:52:04 51°16.295 2°53.163 335.2 11 331 12.7
2009-12-14 07:52:09 51°16.309 2°53.152 335.3 11 332 12.7
2009-12-14 07:52:13 51°16.32 2°53.143 335.7 11 332 12.6
2009-12-14 07:52:18 51°16.333 2°53.131 335.7 11 332 12.5
2009-12-14 07:52:24 51°16.349 2°53.117 335.7 11 332 12.7
2009-12-14 07:52:29 51°16.362 2°53.106 335.6 11 332 12.8
2009-12-14 07:52:34 51°16.376 2°53.094 335.4 11 331 12.6
2009-12-14 07:52:38 51°16.387 2°53.085 335.4 11 331 12.6
2009-12-14 07:52:44 51°16.403 2°53.071 335.4 11 331 12.6
2009-12-14 07:52:48 51°16.413 2°53.061 335.2 10.9 332 12.6
2009-12-14 07:52:53 51°16.427 2°53.05 335.4 11 332 12.5
2009-12-14 07:52:59 51°16.443 2°53.036 335.4 10.9 331 12.5
2009-12-14 07:53:04 51°16.456 2°53.025 335.1 11 332 12.6
2009-12-14 07:53:09 51°16.47 2°53.013 335.4 11 332 12.5
2009-12-14 07:53:13 51°16.48 2°53.004 335.1 11 332 12.5
2009-12-14 07:53:18 51°16.494 2°52.993 335.4 11 333 12.5
2009-12-14 07:53:24 51°16.51 2°52.98 335.9 11 333 12.4
2009-12-14 07:53:29 51°16.524 2°52.968 336.1 11 333 12.4
2009-12-14 07:53:33 51°16.534 2°52.959 335.7 11 332 12.4
2009-12-14 07:53:39 51°16.551 2°52.946 335.3 11 332 12.3
2009-12-14 07:53:44 51°16.564 2°52.934 334.9 11 331 12.5
2009-12-14 07:53:48 51°16.575 2°52.924 334.9 10.9 331 12.2
2009-12-14 07:53:53 51°16.588 2°52.913 335.1 11 331 12.3
2009-12-14 07:53:59 51°16.604 2°52.899 335.2 11 331 12.3
2009-12-14 07:54:04 51°16.617 2°52.887 335.1 10.9 331 11.9
2009-12-14 07:54:09 51°16.63 2°52.875 335 10.9 331 12
2009-12-14 07:54:13 51°16.641 2°52.866 335.4 10.8 333 12.1
2009-12-14 07:54:18 51°16.654 2°52.855 335.5 10.9 331 11.9
2009-12-14 07:54:24 51°16.67 2°52.842 335.4 10.8 332 11.7
2009-12-14 07:54:29 51°16.683 2°52.83 335 10.8 331 11.8
2009-12-14 07:54:33 51°16.694 2°52.821 334.9 10.8 332 11.5
2009-12-14 07:54:38 51°16.707 2°52.81 335.4 10.8 332 11.5
2009-12-14 07:54:44 51°16.723 2°52.796 335.4 10.8 331 11.1
2009-12-14 07:54:49 51°16.736 2°52.785 334.9 10.8 331 11.3
2009-12-14 07:54:54 51°16.749 2°52.773 335.1 10.7 332 10.9
2009-12-14 07:54:58 51°16.76 2°52.765 335.4 10.7 332 10.5
2009-12-14 07:55:04 51°16.775 2°52.751 335.3 10.7 331 10.4
2009-12-14 07:55:08 51°16.786 2°52.742 334.9 10.6 331 10.5
2009-12-14 07:55:14 51°16.801 2°52.728 334.9 10.7 331 10.2
2009-12-14 07:55:19 51°16.814 2°52.717 335 10.6 332 10.3
2009-12-14 07:55:24 51°16.827 2°52.706 335.1 10.6 332 10.3
2009-12-14 07:55:28 51°16.838 2°52.697 335 10.6 332 10.2
2009-12-14 07:55:33 51°16.851 2°52.686 335.2 10.6 332 10.3
2009-12-14 07:55:39 51°16.866 2°52.673 335.5 10.7 332 10.2
2009-12-14 07:55:44 51°16.879 2°52.662 335.4 10.6 331 10.1
2009-12-14 07:55:49 51°16.892 2°52.65 335.1 10.6 331 10.4
2009-12-14 07:55:53 51°16.903 2°52.642 335.6 10.7 332 10.6
2009-12-14 07:55:59 51°16.919 2°52.629 336 10.7 332 10.5
2009-12-14 07:56:04 51°16.932 2°52.617 336.1 10.7 332 10.5
2009-12-14 07:56:08 51°16.943 2°52.609 335.7 10.7 332 10.8
2009-12-14 07:56:13 51°16.955 2°52.597 335.4 10.6 331 10.5
2009-12-14 07:56:18 51°16.968 2°52.586 335.1 10.6 331 10.5
2009-12-14 07:56:24 51°16.984 2°52.572 335 10.6 331 10.7
2009-12-14 07:56:28 51°16.994 2°52.563 335.4 10.6 332 10.4
2009-12-14 07:56:34 51°17.01 2°52.55 335.4 10.6 332 10.4
2009-12-14 07:56:38 51°17.02 2°52.542 335.5 10.6 333 10.3
2009-12-14 07:56:44 51°17.036 2°52.528 335.6 10.6 332 10.5
2009-12-14 07:56:49 51°17.049 2°52.517 335.4 10.7 332 10.5
2009-12-14 07:56:53 51°17.059 2°52.508 335.1 10.7 331 10.3
2009-12-14 07:56:58 51°17.072 2°52.496 335 10.7 331 10.3
2009-12-14 07:57:04 51°17.088 2°52.483 335.4 10.7 332 10.6
2009-12-14 07:57:09 51°17.101 2°52.472 335.9 10.7 332 10.6
2009-12-14 07:57:14 51°17.114 2°52.461 336.5 10.7 333 10.5
2009-12-14 07:57:18 51°17.124 2°52.452 336.8 10.7 331 10.5
2009-12-14 07:57:24 51°17.14 2°52.438 335.9 10.7 331 10.7
2009-12-14 07:57:28 51°17.151 2°52.429 335.5 10.6 332 10.5
2009-12-14 07:57:33 51°17.163 2°52.418 335.4 10.7 331 10.9
2009-12-14 07:57:39 51°17.179 2°52.404 335.2 10.6 332 10.7
2009-12-14 07:57:44 51°17.192 2°52.393 335.2 10.7 331 10.9
2009-12-14 07:57:48 51°17.202 2°52.383 335 10.7 331 10.8
2009-12-14 07:57:53 51°17.215 2°52.372 334.7 10.7 330 10.9
2009-12-14 07:57:59 51°17.231 2°52.358 334.8 10.6 331 10.9
2009-12-14 07:58:04 51°17.244 2°52.347 335.1 10.7 331 11
2009-12-14 07:58:09 51°17.257 2°52.335 335.1 10.7 331 11
2009-12-14 07:58:13 51°17.267 2°52.326 334.9 10.7 331 11
2009-12-14 07:58:19 51°17.283 2°52.313 334.7 10.7 332 11.1
2009-12-14 07:58:24 51°17.296 2°52.301 335.1 10.7 332 11.3
2009-12-14 07:58:28 51°17.306 2°52.292 335.2 10.6 332 11.1
2009-12-14 07:58:33 51°17.319 2°52.281 335.2 10.7 331 11.3
2009-12-14 07:58:38 51°17.332 2°52.27 334.8 10.7 331 11.5
2009-12-14 07:58:44 51°17.348 2°52.256 334.6 10.7 331 11.6
2009-12-14 07:58:48 51°17.358 2°52.247 334.8 10.7 332 12.1
2009-12-14 07:58:53 51°17.371 2°52.236 335.4 10.8 332 12
2009-12-14 07:58:58 51°17.384 2°52.224 335.5 10.7 332 12.1
2009-12-14 07:59:04 51°17.4 2°52.211 335.1 10.8 331 12.1
2009-12-14 07:59:09 51°17.413 2°52.199 334.8 10.8 331 12.5
2009-12-14 07:59:13 51°17.424 2°52.19 334.9 10.8 332 12.2
2009-12-14 07:59:19 51°17.439 2°52.176 335.1 10.8 331 12.1
2009-12-14 07:59:24 51°17.453 2°52.165 334.8 10.7 332 11.9
2009-12-14 07:59:28 51°17.463 2°52.156 335.3 10.7 332 11.8
2009-12-14 07:59:33 51°17.476 2°52.145 335.4 10.8 331 12.3
2009-12-14 07:59:39 51°17.492 2°52.132 335.1 10.7 332 11.8
2009-12-14 07:59:44 51°17.505 2°52.121 335 10.6 333 12.2
2009-12-14 07:59:48 51°17.516 2°52.113 337.6 10.6 337 12.2
2009-12-14 07:59:53 51°17.529 2°52.104 339.4 10.5 336 12
2009-12-14 07:59:59 51°17.546 2°52.094 340.5 10.5 339 12.5
2009-12-14 08:00:04 51°17.559 2°52.085 342 10.4 339 12.1
2009-12-14 08:00:08 51°17.57 2°52.079 343.1 10.4 340 11.8
2009-12-14 08:00:13 51°17.584 2°52.072 344.1 10.4 342 12
2009-12-14 08:00:19 51°17.601 2°52.063 344.7 10.5 342 11.9
2009-12-14 08:00:24 51°17.615 2°52.058 347.6 10.4 348 11.9
2009-12-14 08:00:28 51°17.626 2°52.054 349.4 10.4 346 11.9
2009-12-14 08:00:33 51°17.64 2°52.05 351 10.3 350 11.7
2009-12-14 08:00:38 51°17.654 2°52.045 352.3 10.4 350 11.9
2009-12-14 08:00:44 51°17.671 2°52.041 353.6 10.4 353 11.6
2009-12-14 08:00:49 51°17.685 2°52.039 355 10.4 353 11.6
2009-12-14 08:00:53 51°17.697 2°52.036 355.3 10.4 353 11.7
2009-12-14 08:00:58 51°17.711 2°52.035 356.2 10.5 355 11.9
2009-12-14 08:01:04 51°17.729 2°52.032 356.4 10.5 354 11.8
2009-12-14 08:01:09 51°17.743 2°52.029 357 10.5 355 11.7
2009-12-14 08:01:14 51°17.758 2°52.027 357.1 10.5 353 11.7
2009-12-14 08:01:18 51°17.769 2°52.025 357.2 10.5 355 11.7
2009-12-14 08:01:24 51°17.787 2°52.022 357.6 10.4 354 11.6
2009-12-14 08:01:28 51°17.798 2°52.02 357.4 10.4 354 11.7
2009-12-14 08:01:33 51°17.813 2°52.019 357.5 10.4 356 11.6
2009-12-14 08:01:38 51°17.827 2°52.017 357.9 10.4 354 11.5
2009-12-14 08:01:44 51°17.844 2°52.014 357.6 10.4 355 11.3
2009-12-14 08:01:48 51°17.856 2°52.013 357.6 10.5 355 11.4
2009-12-14 08:01:54 51°17.873 2°52.01 357.9 10.4 355 11.4
2009-12-14 08:01:58 51°17.885 2°52.009 358.2 10.5 355 11.3
2009-12-14 08:02:04 51°17.902 2°52.007 357.7 10.5 355 11.4
2009-12-14 08:02:08 51°17.914 2°52.005 357.2 10.5 354 11.3
2009-12-14 08:02:13 51°17.928 2°52.003 356.6 10.4 355 11.2
2009-12-14 08:02:19 51°17.946 2°52 356.9 10.5 354 11.4
2009-12-14 08:02:24 51°17.96 2°51.998 356.7 10.5 354 11.3
2009-12-14 08:02:28 51°17.972 2°51.995 356.7 10.5 353 11.1
2009-12-14 08:02:33 51°17.986 2°51.993 356.6 10.5 354 11.3
2009-12-14 08:02:39 51°18.004 2°51.99 356.5 10.5 353 11.2
2009-12-14 08:02:44 51°18.018 2°51.987 356.5 10.5 353 11.2
2009-12-14 08:02:48 51°18.03 2°51.986 356.5 10.4 354 11.3
2009-12-14 08:02:53 51°18.044 2°51.983 356.8 10.4 354 11.3
2009-12-14 08:02:58 51°18.058 2°51.981 356.7 10.5 354 11.3
2009-12-14 08:03:04 51°18.076 2°51.978 356.5 10.5 354 11.5
2009-12-14 08:03:09 51°18.09 2°51.975 356.3 10.6 354 11.5
2009-12-14 08:03:13 51°18.102 2°51.974 356.6 10.6 354 11.4
2009-12-14 08:03:18 51°18.117 2°51.971 356.7 10.6 353 11.5
2009-12-14 08:03:24 51°18.134 2°51.968 356.5 10.6 354 11.5
2009-12-14 08:03:29 51°18.149 2°51.965 356.1 10.6 353 11.5
2009-12-14 08:03:34 51°18.163 2°51.963 356 10.5 354 11.6
2009-12-14 08:03:38 51°18.175 2°51.961 356 10.6 353 11.8
2009-12-14 08:03:44 51°18.192 2°51.957 355.6 10.5 353 11.5
2009-12-14 08:03:48 51°18.204 2°51.954 355.2 10.6 352 11.6
2009-12-14 08:03:53 51°18.218 2°51.952 355.4 10.6 353 11.8
2009-12-14 08:03:58 51°18.233 2°51.949 356.3 10.6 354 11.8
2009-12-14 08:04:04 51°18.251 2°51.946 356.8 10.6 353 11.8
2009-12-14 08:04:08 51°18.262 2°51.944 356.5 10.6 353 12
2009-12-14 08:04:14 51°18.28 2°51.94 356 10.7 353 12.1
2009-12-14 08:04:18 51°18.291 2°51.938 355.8 10.6 353 11.9
2009-12-14 08:04:24 51°18.309 2°51.935 355.7 10.6 353 12.2
2009-12-14 08:04:28 51°18.321 2°51.932 355.7 10.6 353 12
2009-12-14 08:04:33 51°18.335 2°51.93 356.2 10.6 354 12.4
2009-12-14 08:04:39 51°18.353 2°51.927 356.3 10.6 353 12.2
2009-12-14 08:04:44 51°18.367 2°51.924 356 10.6 353 12.2
2009-12-14 08:04:48 51°18.379 2°51.921 355.7 10.7 353 12.6
2009-12-14 08:04:53 51°18.394 2°51.918 355.4 10.7 352 12.4
2009-12-14 08:04:57 51°18.405 2°51.916 355.5 10.6 353 12.5
2009-12-14 08:05:04 51°18.426 2°51.912 355.5 10.7 352 12.6
2009-12-14 08:05:09 51°18.441 2°51.908 355.1 10.7 351 12.5
2009-12-14 08:05:13 51°18.452 2°51.906 355 10.6 352 12.8
2009-12-14 08:05:18 51°18.467 2°51.903 355 10.8 352 12.7
2009-12-14 08:05:24 51°18.485 2°51.899 355.2 10.7 353 12.8
2009-12-14 08:05:28 51°18.497 2°51.896 355.5 10.7 352 13
2009-12-14 08:05:33 51°18.511 2°51.893 355.7 10.7 353 12.9
2009-12-14 08:05:38 51°18.526 2°51.89 355.1 10.7 351 13
2009-12-14 08:05:44 51°18.544 2°51.886 355 10.7 352 13.1
2009-12-14 08:05:48 51°18.555 2°51.883 355.4 10.7 352 13.3
2009-12-14 08:05:53 51°18.57 2°51.879 355.3 10.7 352 13.3
2009-12-14 08:05:58 51°18.585 2°51.876 355.1 10.8 351 13.4
2009-12-14 08:06:04 51°18.603 2°51.871 354.8 10.7 351 13.4
2009-12-14 08:06:09 51°18.617 2°51.868 355.2 10.7 352 13.6
2009-12-14 08:06:13 51°18.629 2°51.865 355.4 10.7 351 13.6
2009-12-14 08:06:18 51°18.644 2°51.861 355.3 10.7 352 13.7
2009-12-14 08:06:24 51°18.661 2°51.857 355.4 10.7 351 13.7
2009-12-14 08:06:29 51°18.676 2°51.854 355.5 10.6 352 13.7
2009-12-14 08:06:33 51°18.687 2°51.851 355.6 10.6 351 14.3
2009-12-14 08:06:38 51°18.702 2°51.847 355.5 10.6 351 14
2009-12-14 08:06:44 51°18.719 2°51.842 355.2 10.6 351 14
2009-12-14 08:06:49 51°18.734 2°51.839 355.3 10.6 351 14.1
2009-12-14 08:06:53 51°18.745 2°51.836 355.4 10.6 351 14.2
2009-12-14 08:06:58 51°18.76 2°51.832 355.4 10.6 351 14.3
2009-12-14 08:07:04 51°18.777 2°51.828 355.6 10.5 352 14.3
2009-12-14 08:07:08 51°18.789 2°51.826 355.8 10.6 353 14.7
2009-12-14 08:07:13 51°18.804 2°51.823 355.7 10.6 353 14.4
2009-12-14 08:07:17 51°18.815 2°51.821 355.7 10.6 353 14.5
2009-12-14 08:07:24 51°18.835 2°51.816 355.8 10.6 352 14.6
2009-12-14 08:07:29 51°18.85 2°51.813 355.2 10.6 351 14.6
2009-12-14 08:07:33 51°18.862 2°51.81 354.7 10.5 351 14.8
2009-12-14 08:07:38 51°18.876 2°51.807 355 10.5 353 14.9
2009-12-14 08:07:44 51°18.894 2°51.804 356.4 10.5 354 14.7
2009-12-14 08:07:49 51°18.908 2°51.801 356.8 10.5 354 15.1
2009-12-14 08:07:53 51°18.92 2°51.799 356.8 10.5 353 14.9
2009-12-14 08:07:58 51°18.934 2°51.795 355.6 10.6 351 15
2009-12-14 08:08:04 51°18.951 2°51.791 355.5 10.6 352 15.2
2009-12-14 08:08:09 51°18.966 2°51.787 355 10.6 350 15.1
2009-12-14 08:08:14 51°18.98 2°51.784 355 10.5 352 15.4
2009-12-14 08:08:19 51°18.995 2°51.78 355.2 10.6 351 15.5
2009-12-14 08:08:24 51°19.01 2°51.777 355.3 10.6 352 15.6
2009-12-14 08:08:28 51°19.021 2°51.774 355.3 10.7 350 15.6
2009-12-14 08:08:33 51°19.036 2°51.77 355 10.6 352 15.6
2009-12-14 08:08:39 51°19.053 2°51.766 354.9 10.6 351 15.9
2009-12-14 08:08:44 51°19.068 2°51.763 355.1 10.6 352 15.9
2009-12-14 08:08:48 51°19.079 2°51.76 355.3 10.5 351 15.7
2009-12-14 08:08:53 51°19.093 2°51.756 355.1 10.6 351 16.1
2009-12-14 08:08:59 51°19.111 2°51.752 355.1 10.6 351 15.8
2009-12-14 08:09:04 51°19.125 2°51.749 355.2 10.5 352 16
2009-12-14 08:09:08 51°19.137 2°51.746 355.4 10.5 352 15.8
2009-12-14 08:09:13 51°19.152 2°51.743 355.9 10.5 353 16.1
2009-12-14 08:09:18 51°19.166 2°51.74 355.7 10.6 351 15.9
2009-12-14 08:09:24 51°19.183 2°51.735 355.1 10.6 352 16.1
2009-12-14 08:09:29 51°19.198 2°51.732 355.1 10.5 351 16.1
2009-12-14 08:09:33 51°19.209 2°51.73 356.2 10.5 354 16.2
2009-12-14 08:09:38 51°19.224 2°51.727 356.5 10.6 352 16.4
2009-12-14 08:09:44 51°19.241 2°51.724 356.9 10.5 354 16.3
2009-12-14 08:09:49 51°19.256 2°51.721 357.4 10.5 353 16.2
2009-12-14 08:09:53 51°19.268 2°51.719 357.3 10.6 353 16.6
2009-12-14 08:09:58 51°19.282 2°51.716 357.2 10.6 353 16.4
2009-12-14 08:10:04 51°19.299 2°51.712 356.4 10.5 352 16.5
2009-12-14 08:10:09 51°19.314 2°51.709 356.1 10.6 352 16.5
2009-12-14 08:10:14 51°19.328 2°51.706 355.8 10.6 352 16.4
2009-12-14 08:10:18 51°19.34 2°51.704 355.8 10.6 352 16.5
2009-12-14 08:10:24 51°19.358 2°51.699 355.4 10.7 351 16.6
2009-12-14 08:10:29 51°19.372 2°51.696 355.1 10.5 351 16.4
2009-12-14 08:10:34 51°19.386 2°51.692 354.9 10.5 351 16.7
2009-12-14 08:10:38 51°19.398 2°51.689 355.1 10.6 352 16.6
2009-12-14 08:10:44 51°19.415 2°51.684 355 10.5 351 16.5
2009-12-14 08:10:48 51°19.427 2°51.681 354.9 10.6 351 16.6
2009-12-14 08:10:53 51°19.441 2°51.678 354.8 10.7 351 16.4
2009-12-14 08:10:58 51°19.456 2°51.674 355 10.6 351 16.4
2009-12-14 08:11:04 51°19.473 2°51.669 354.5 10.5 351 16.6
2009-12-14 08:11:09 51°19.488 2°51.666 354.9 10.5 352 16.5
2009-12-14 08:11:14 51°19.502 2°51.662 355.2 10.6 351 16.7
2009-12-14 08:11:18 51°19.514 2°51.659 354.8 10.6 351 16.6
2009-12-14 08:11:24 51°19.531 2°51.655 354.8 10.6 351 16.6
2009-12-14 08:11:29 51°19.546 2°51.651 355 10.6 351 16.4
2009-12-14 08:11:33 51°19.557 2°51.648 354.8 10.6 351 16.5
2009-12-14 08:11:39 51°19.575 2°51.644 354.9 10.6 352 16.4
2009-12-14 08:11:44 51°19.589 2°51.641 355.1 10.7 351 16.5
2009-12-14 08:11:48 51°19.601 2°51.638 354.7 10.7 351 16.4
2009-12-14 08:11:53 51°19.616 2°51.634 355 10.6 352 16.2
2009-12-14 08:11:59 51°19.633 2°51.629 354.8 10.5 350 16.1
2009-12-14 08:12:04 51°19.647 2°51.626 354.6 10.6 352 16.2
2009-12-14 08:12:09 51°19.662 2°51.622 355 10.6 350 16.1
2009-12-14 08:12:13 51°19.673 2°51.619 354.8 10.6 350 16
2009-12-14 08:12:18 51°19.688 2°51.615 355.1 10.6 351 15.9
2009-12-14 08:12:24 51°19.705 2°51.611 355 10.6 350 16.2
2009-12-14 08:12:29 51°19.72 2°51.607 355 10.6 351 16
2009-12-14 08:12:33 51°19.731 2°51.604 355 10.5 351 15.8
2009-12-14 08:12:38 51°19.746 2°51.601 355.1 10.5 353 16.1
2009-12-14 08:12:44 51°19.763 2°51.598 355.9 10.6 353 16
2009-12-14 08:12:48 51°19.775 2°51.596 356 10.6 353 15.9
2009-12-14 08:12:54 51°19.792 2°51.592 355.7 10.6 352 15.8
2009-12-14 08:12:58 51°19.804 2°51.589 355.2 10.7 352 15.7
2009-12-14 08:13:04 51°19.822 2°51.585 355 10.7 352 15.6
2009-12-14 08:13:08 51°19.833 2°51.583 355.3 10.7 353 16.1
2009-12-14 08:13:13 51°19.848 2°51.58 356.5 10.6 354 15.6
2009-12-14 08:13:19 51°19.866 2°51.577 356.5 10.6 353 15.6
2009-12-14 08:13:24 51°19.88 2°51.574 356.5 10.7 354 15.8
2009-12-14 08:13:28 51°19.892 2°51.572 356.8 10.7 354 15.6
2009-12-14 08:13:33 51°19.907 2°51.57 357.2 10.7 354 15.5
2009-12-14 08:13:39 51°19.925 2°51.566 357 10.8 353 15.4
2009-12-14 08:13:44 51°19.939 2°51.564 356.7 10.8 354 15.6
2009-12-14 08:13:49 51°19.954 2°51.561 356.9 10.7 354 15.3
2009-12-14 08:13:53 51°19.966 2°51.559 357 10.7 354 15.3
2009-12-14 08:13:58 51°19.981 2°51.556 356.7 10.7 353 15.1
2009-12-14 08:14:04 51°19.999 2°51.552 355.9 10.7 351 15
2009-12-14 08:14:08 51°20.01 2°51.55 355.4 10.7 353 14.8
2009-12-14 08:14:13 51°20.025 2°51.547 355.7 10.8 351 14.7
2009-12-14 08:14:18 51°20.04 2°51.543 355 10.7 352 14.5
2009-12-14 08:14:24 51°20.058 2°51.539 355 10.6 351 14
2009-12-14 08:14:28 51°20.069 2°51.536 354.5 10.6 351 14.2
2009-12-14 08:14:34 51°20.087 2°51.533 355.3 10.7 353 13.9
2009-12-14 08:14:38 51°20.099 2°51.53 355.8 10.7 352 14.1
2009-12-14 08:14:44 51°20.116 2°51.526 355.2 10.6 353 13.7
2009-12-14 08:14:49 51°20.13 2°51.523 355.6 10.6 353 14
2009-12-14 08:14:53 51°20.142 2°51.52 355.6 10.6 352 14.1
2009-12-14 08:14:58 51°20.157 2°51.517 354.7 10.6 352 13.6
2009-12-14 08:15:04 51°20.175 2°51.514 355.5 10.6 354 13.8
2009-12-14 08:15:09 51°20.189 2°51.51 355.2 10.6 351 14
2009-12-14 08:15:14 51°20.204 2°51.507 354.7 10.6 354 14.3
2009-12-14 08:15:18 51°20.215 2°51.505 355.7 10.6 353 14
2009-12-14 08:15:24 51°20.233 2°51.501 355.7 10.6 353 14.1
2009-12-14 08:15:28 51°20.245 2°51.499 355 10.7 351 14
2009-12-14 08:15:33 51°20.259 2°51.495 354.5 10.7 352 14.2
2009-12-14 08:15:39 51°20.277 2°51.491 354.5 10.7 353 14.2
2009-12-14 08:15:44 51°20.292 2°51.488 355 10.6 352 14.2
2009-12-14 08:15:48 51°20.303 2°51.486 355 10.7 353 14.4
2009-12-14 08:15:53 51°20.318 2°51.482 354.9 10.7 352 14.4
2009-12-14 08:15:59 51°20.336 2°51.478 354.3 10.8 352 14.6
2009-12-14 08:16:04 51°20.351 2°51.474 354.4 10.8 352 14.7
2009-12-14 08:16:09 51°20.365 2°51.471 354.6 10.8 352 14.8
2009-12-14 08:16:13 51°20.377 2°51.468 354.8 10.8 352 15
2009-12-14 08:16:18 51°20.392 2°51.465 354.7 10.8 351 15
2009-12-14 08:16:24 51°20.41 2°51.461 354.5 10.8 352 15
2009-12-14 08:16:28 51°20.422 2°51.458 354.9 10.7 351 14.8
2009-12-14 08:16:33 51°20.436 2°51.454 354.4 10.7 351 15.2
2009-12-14 08:16:38 51°20.451 2°51.451 354.6 10.7 351 14.9
2009-12-14 08:16:44 51°20.469 2°51.447 354.7 10.7 352 15
2009-12-14 08:16:48 51°20.481 2°51.443 354.5 10.8 350 14.9
2009-12-14 08:16:53 51°20.495 2°51.439 354.4 10.6 349 15
2009-12-14 08:16:58 51°20.509 2°51.433 352.1 10.6 343 14.9
2009-12-14 08:17:04 51°20.525 2°51.421 345 10.5 336 15.3
2009-12-14 08:17:08 51°20.535 2°51.412 338.3 10.6 332 15.5
2009-12-14 08:17:13 51°20.549 2°51.403 339.3 10.6 339 15.8
2009-12-14 08:17:19 51°20.565 2°51.389 338.4 10.8 330 16
2009-12-14 08:17:24 51°20.578 2°51.379 336.7 10.8 334 16.5
2009-12-14 08:17:28 51°20.589 2°51.371 337.5 10.9 333 16.7
2009-12-14 08:17:33 51°20.602 2°51.359 336.1 10.9 331 16.6
2009-12-14 08:17:39 51°20.618 2°51.345 335.5 10.8 331 16.9
2009-12-14 08:17:44 51°20.631 2°51.333 335 10.9 330 17.4
2009-12-14 08:17:48 51°20.641 2°51.324 334.4 10.9 331 17.4
2009-12-14 08:17:53 51°20.655 2°51.311 334.4 11 330 17.5
2009-12-14 08:17:59 51°20.67 2°51.296 333.9 11 330 17.7
2009-12-14 08:18:04 51°20.683 2°51.284 333.4 11 328 17.9
2009-12-14 08:18:08 51°20.694 2°51.273 333.2 11 329 18.1
2009-12-14 08:18:13 51°20.707 2°51.261 333.7 11.1 330 18.5
2009-12-14 08:18:19 51°20.723 2°51.247 334.5 11 331 18.2
2009-12-14 08:18:24 51°20.736 2°51.235 334.7 11 329 18.3
2009-12-14 08:18:28 51°20.747 2°51.225 334 11 331 18.5
2009-12-14 08:18:33 51°20.76 2°51.214 335 11 332 18.6
2009-12-14 08:18:38 51°20.774 2°51.202 335.1 11.1 330 18.7
2009-12-14 08:18:44 51°20.79 2°51.188 334.6 11 331 18.6
2009-12-14 08:18:49 51°20.803 2°51.175 334.2 11.1 330 19.1
2009-12-14 08:18:53 51°20.814 2°51.165 334 11.1 330 19
2009-12-14 08:18:58 51°20.827 2°51.154 334 11.2 331 19.3
2009-12-14 08:19:04 51°20.844 2°51.139 334.6 11.1 332 19.3
2009-12-14 08:19:09 51°20.857 2°51.127 335.3 11.1 331 19.9
2009-12-14 08:19:14 51°20.871 2°51.115 334.7 11.2 330 20.1
2009-12-14 08:19:18 51°20.881 2°51.105 334.3 11.2 330 20.2
2009-12-14 08:19:24 51°20.897 2°51.09 334.2 11.2 330 20.5
2009-12-14 08:19:28 51°20.908 2°51.08 334 11.1 329 20.5
2009-12-14 08:19:33 51°20.921 2°51.067 333.9 11.1 329 20.9
2009-12-14 08:19:38 51°20.934 2°51.055 334 11.1 329 21.3
2009-12-14 08:19:44 51°20.95 2°51.039 333.9 11.2 329 21.5
2009-12-14 08:19:48 51°20.961 2°51.029 333.8 11.1 329 21.5
2009-12-14 08:19:54 51°20.977 2°51.014 334 11.2 330 22
2009-12-14 08:19:58 51°20.988 2°51.004 334.1 11.2 329 22.1
2009-12-14 08:20:04 51°21.003 2°50.989 334.3 11.1 330 22.2
2009-12-14 08:20:08 51°21.014 2°50.979 334.1 11.1 330 22.5
2009-12-14 08:20:13 51°21.028 2°50.968 335.6 11 333 22.9
2009-12-14 08:20:19 51°21.044 2°50.955 337.3 11.1 333 23.2
2009-12-14 08:20:24 51°21.058 2°50.945 338.3 10.9 336 22.8
2009-12-14 08:20:28 51°21.069 2°50.937 339.3 11 335 23.3
2009-12-14 08:20:33 51°21.083 2°50.926 339.8 10.9 335 23.4
2009-12-14 08:20:39 51°21.1 2°50.914 340.5 11 336 23.6
2009-12-14 08:20:44 51°21.113 2°50.904 340.1 11 336 23.8
2009-12-14 08:20:48 51°21.125 2°50.897 340.5 11 338 24
2009-12-14 08:20:53 51°21.139 2°50.887 341.2 11.1 336 24.2
2009-12-14 08:20:58 51°21.153 2°50.877 340.5 10.9 337 24.1
2009-12-14 08:21:04 51°21.17 2°50.866 341 11 338 24.3
2009-12-14 08:21:09 51°21.184 2°50.857 341.2 11 337 24.4
2009-12-14 08:21:13 51°21.195 2°50.849 340.5 11 336 24.3
2009-12-14 08:21:18 51°21.209 2°50.839 340.5 11 337 24.3
2009-12-14 08:21:24 51°21.225 2°50.828 340.5 10.9 337 24.6
2009-12-14 08:21:29 51°21.24 2°50.818 341.2 11 337 24.8
2009-12-14 08:21:34 51°21.254 2°50.809 341.7 11 338 24.4
2009-12-14 08:21:38 51°21.265 2°50.802 342 11 338 24.7
2009-12-14 08:21:44 51°21.282 2°50.791 342.7 11 338 24.6
2009-12-14 08:21:48 51°21.293 2°50.783 342.5 11 337 24.7
2009-12-14 08:21:53 51°21.307 2°50.774 341.4 11 336 24.9
2009-12-14 08:21:58 51°21.321 2°50.763 340 11.1 335 24.7
2009-12-14 08:22:04 51°21.338 2°50.751 339 11 334 24.5
2009-12-14 08:22:08 51°21.349 2°50.742 338.5 11 335 24.6
2009-12-14 08:22:14 51°21.365 2°50.731 339.7 11 336 24.5
2009-12-14 08:22:18 51°21.376 2°50.723 340.3 11.1 336 24.6
2009-12-14 08:22:24 51°21.393 2°50.711 340.8 11.1 337 24.3
2009-12-14 08:22:28 51°21.405 2°50.703 341.1 11 338 24.5
2009-12-14 08:22:33 51°21.419 2°50.695 341.5 11 339 24.8
2009-12-14 08:22:38 51°21.434 2°50.687 343.1 10.9 343 24.6
2009-12-14 08:22:44 51°21.451 2°50.679 345.6 11 342 24.7
2009-12-14 08:22:49 51°21.465 2°50.671 345.7 10.9 343 24.9
2009-12-14 08:22:53 51°21.477 2°50.666 347.5 11 345 24.6
2009-12-14 08:22:58 51°21.492 2°50.66 348 11 344 24.4
2009-12-14 08:23:04 51°21.51 2°50.653 348.9 11 347 24.7
2009-12-14 08:23:09 51°21.525 2°50.647 349.4 11 346 24.8
2009-12-14 08:23:13 51°21.537 2°50.643 349.9 10.9 348 24.8
2009-12-14 08:23:18 51°21.551 2°50.638 350.3 10.9 348 24.8
2009-12-14 08:23:24 51°21.569 2°50.632 351.2 10.9 350 24.6
2009-12-14 08:23:29 51°21.584 2°50.63 354.1 10.7 354 24.6
2009-12-14 08:23:33 51°21.595 2°50.627 355 10.8 352 24.8
2009-12-14 08:23:38 51°21.61 2°50.626 356.7 10.8 356 24.8
2009-12-14 08:23:44 51°21.628 2°50.623 357.5 10.8 355 24.9
2009-12-14 08:23:48 51°21.64 2°50.622 358.5 10.7 358 24.9
2009-12-14 08:23:53 51°21.655 2°50.621 359.6 10.8 358 24.9
2009-12-14 08:23:58 51°21.67 2°50.621 0.2 10.8 358 24.7
2009-12-14 08:24:04 51°21.688 2°50.619 0.2 10.8 357 24.5
2009-12-14 08:24:08 51°21.7 2°50.619 1 10.8 -999 24.4
2009-12-14 08:24:13 51°21.715 2°50.619 2 10.8 359 24.8
2009-12-14 08:24:18 51°21.73 2°50.619 2.3 10.8 -999 24.8
2009-12-14 08:24:24 51°21.748 2°50.619 2.6 10.8 359 24.4
2009-12-14 08:24:29 51°21.763 2°50.618 2.3 10.7 359 24.3
2009-12-14 08:24:34 51°21.778 2°50.618 1.7 10.8 359 24.4
2009-12-14 08:24:38 51°21.79 2°50.618 1.4 10.8 359 24.6
2009-12-14 08:24:44 51°21.807 2°50.617 1.6 10.7 359 24.4
2009-12-14 08:24:49 51°21.822 2°50.617 1.4 10.8 359 24.6
2009-12-14 08:24:53 51°21.834 2°50.617 1.5 10.7 1 24.1
2009-12-14 08:24:59 51°21.852 2°50.616 2.3 10.7 359 24.2
2009-12-14 08:25:04 51°21.867 2°50.616 1.2 10.7 1 24.2
2009-12-14 08:25:08 51°21.879 2°50.617 1.8 10.7 -999 23.9
2009-12-14 08:25:13 51°21.894 2°50.616 2.2 10.8 -999 24.4
2009-12-14 08:25:18 51°21.909 2°50.617 2.4 10.9 1 24.1
2009-12-14 08:25:24 51°21.927 2°50.616 2.4 10.9 -999 23.8
2009-12-14 08:25:28 51°21.939 2°50.617 2.5 10.8 -999 23.8
2009-12-14 08:25:33 51°21.954 2°50.617 3 10.9 1 23.9
2009-12-14 08:25:38 51°21.969 2°50.617 2.8 10.8 -999 23.9
2009-12-14 08:25:44 51°21.987 2°50.617 3 10.8 1 23.8
2009-12-14 08:25:48 51°21.999 2°50.617 2.1 10.9 359 24.1
2009-12-14 08:25:53 51°22.014 2°50.617 1.6 10.8 -999 23.9
2009-12-14 08:25:58 51°22.029 2°50.616 1.4 10.8 358 23.6
2009-12-14 08:26:04 51°22.047 2°50.616 1.1 10.9 359 24.2
2009-12-14 08:26:09 51°22.062 2°50.616 1 10.9 359 24
2009-12-14 08:26:14 51°22.077 2°50.615 1.5 10.8 359 24.1
2009-12-14 08:26:18 51°22.089 2°50.615 2.2 10.9 1 24.1
2009-12-14 08:26:24 51°22.107 2°50.615 2.2 10.8 -999 23.9
2009-12-14 08:26:28 51°22.119 2°50.615 1.9 10.8 -999 24.1
2009-12-14 08:26:33 51°22.134 2°50.615 1.4 10.9 359 24.1
2009-12-14 08:26:39 51°22.152 2°50.614 1 10.8 -999 24.4
2009-12-14 08:26:44 51°22.167 2°50.615 2 10.8 1 24.3
2009-12-14 08:26:48 51°22.179 2°50.614 1.5 10.9 359 24.2
2009-12-14 08:26:54 51°22.198 2°50.614 0.9 10.9 -999 24.5
2009-12-14 08:26:58 51°22.21 2°50.613 0.5 10.7 359 24
2009-12-14 08:27:04 51°22.227 2°50.613 1.3 10.8 -999 24.2
2009-12-14 08:27:08 51°22.239 2°50.613 1.2 10.9 -999 24
2009-12-14 08:27:13 51°22.254 2°50.613 1.4 10.8 358 23.8
2009-12-14 08:27:19 51°22.272 2°50.612 0.5 10.8 -999 23.8
2009-12-14 08:27:24 51°22.287 2°50.612 1.9 10.9 358 24.1
2009-12-14 08:27:28 51°22.299 2°50.611 0.8 10.9 358 24.3
2009-12-14 08:27:33 51°22.315 2°50.612 1.6 10.8 1 23.9
2009-12-14 08:27:38 51°22.33 2°50.61 0.8 10.9 356 24
2009-12-14 08:27:44 51°22.348 2°50.61 0.1 10.8 -999 24
2009-12-14 08:27:48 51°22.36 2°50.609 0.9 10.8 359 24.2
2009-12-14 08:27:53 51°22.375 2°50.61 1.6 10.9 -999 24.3
2009-12-14 08:27:58 51°22.39 2°50.609 1.1 10.8 358 24.1
2009-12-14 08:28:04 51°22.408 2°50.608 0.5 10.8 359 24.2
2009-12-14 08:28:09 51°22.423 2°50.607 0.3 10.8 358 24.1
2009-12-14 08:28:13 51°22.435 2°50.606 359.8 10.7 358 24.1
2009-12-14 08:28:18 51°22.45 2°50.606 0.3 10.9 -999 24.1
2009-12-14 08:28:24 51°22.468 2°50.606 1.1 10.9 359 24
2009-12-14 08:28:29 51°22.483 2°50.605 0.8 10.8 358 23.7
2009-12-14 08:28:34 51°22.498 2°50.604 359.9 10.9 358 24.1
2009-12-14 08:28:38 51°22.51 2°50.604 0.2 10.9 359 24
2009-12-14 08:28:44 51°22.528 2°50.603 -999 10.9 357 23.8
2009-12-14 08:28:48 51°22.54 2°50.603 359.8 10.9 359 23.7
2009-12-14 08:28:53 51°22.556 2°50.602 0.4 10.9 358 23.6
2009-12-14 08:28:59 51°22.574 2°50.601 0.2 11 358 23.7
2009-12-14 08:29:04 51°22.589 2°50.6 359.7 11 358 23.7
2009-12-14 08:29:08 51°22.601 2°50.6 359.9 11 359 23.7
2009-12-14 08:29:13 51°22.617 2°50.599 0.1 11 358 23.3
2009-12-14 08:29:18 51°22.632 2°50.598 359.6 11 358 23.6
2009-12-14 08:29:24 51°22.65 2°50.597 359.4 10.9 358 23.3
2009-12-14 08:29:29 51°22.665 2°50.596 359.7 11 358 23.9
2009-12-14 08:29:33 51°22.677 2°50.595 359.6 10.9 358 23.3
2009-12-14 08:29:38 51°22.692 2°50.594 359.4 11 357 23.6
2009-12-14 08:29:44 51°22.71 2°50.594 359.4 10.9 358 23.6
2009-12-14 08:29:49 51°22.726 2°50.592 359.4 10.9 356 23.4
2009-12-14 08:29:53 51°22.738 2°50.591 358.9 11 359 23.6
2009-12-14 08:29:58 51°22.753 2°50.591 0.1 11 358 23.1
2009-12-14 08:30:04 51°22.772 2°50.59 0.1 11 358 22.4
2009-12-14 08:30:09 51°22.787 2°50.589 0.2 10.9 359 21.9
2009-12-14 08:30:13 51°22.799 2°50.589 0.3 10.9 358 21.5
2009-12-14 08:30:18 51°22.814 2°50.588 0.1 10.9 358 20.7
2009-12-14 08:30:24 51°22.832 2°50.587 0.1 10.9 359 20.3
2009-12-14 08:30:29 51°22.847 2°50.586 0.1 10.9 358 19.9
2009-12-14 08:30:34 51°22.862 2°50.586 -999 10.9 358 19.1
2009-12-14 08:30:38 51°22.874 2°50.585 359.6 10.9 358 17.7
2009-12-14 08:30:44 51°22.892 2°50.585 0.4 10.8 -999 15.1
2009-12-14 08:30:48 51°22.904 2°50.584 0.3 10.8 358 17.6
2009-12-14 08:30:53 51°22.919 2°50.584 359.9 10.9 359 18.6
2009-12-14 08:30:58 51°22.934 2°50.583 359.5 10.9 358 18.5
2009-12-14 08:31:04 51°22.952 2°50.582 359.4 10.9 358 18
2009-12-14 08:31:09 51°22.967 2°50.582 -999 10.8 359 17.4
2009-12-14 08:31:14 51°22.982 2°50.582 0.8 10.8 -999 15.3
2009-12-14 08:31:18 51°22.994 2°50.582 1.5 10.8 -999 15.8
2009-12-14 08:31:24 51°23.012 2°50.581 0.8 10.7 359 16.5
2009-12-14 08:31:29 51°23.027 2°50.581 0.9 10.7 -999 17.2
2009-12-14 08:31:33 51°23.038 2°50.581 0.8 10.7 359 16.8
2009-12-14 08:31:39 51°23.056 2°50.581 0.7 10.7 -999 15.3
2009-12-14 08:31:44 51°23.071 2°50.58 0.8 10.7 358 15.1
2009-12-14 08:31:48 51°23.083 2°50.579 0.1 10.7 358 16.4
2009-12-14 08:31:53 51°23.098 2°50.579 359.7 10.6 358 16.7
2009-12-14 08:31:58 51°23.112 2°50.578 0.1 10.6 358 16.9
2009-12-14 08:32:04 51°23.13 2°50.577 -999 10.6 358 15.3
2009-12-14 08:32:09 51°23.145 2°50.576 359.4 10.6 357 15.6
2009-12-14 08:32:13 51°23.156 2°50.576 -999 10.4 359 16.7
2009-12-14 08:32:18 51°23.171 2°50.574 359.9 10.5 358 17.1
2009-12-14 08:32:24 51°23.188 2°50.574 0.4 10.6 -999 16.9
2009-12-14 08:32:28 51°23.2 2°50.574 0.2 10.6 358 16.7
2009-12-14 08:32:33 51°23.215 2°50.573 0.3 10.6 359 15.9
2009-12-14 08:32:39 51°23.233 2°50.572 0.2 10.7 357 14.4
2009-12-14 08:32:44 51°23.247 2°50.571 359.7 10.6 358 16.4
2009-12-14 08:32:49 51°23.262 2°50.571 0.2 10.7 359 17.2
2009-12-14 08:32:53 51°23.274 2°50.571 0.7 10.7 359 17.3
2009-12-14 08:32:58 51°23.289 2°50.57 0.5 10.8 358 17.5
2009-12-14 08:33:04 51°23.307 2°50.569 0.1 10.7 358 17.2
2009-12-14 08:33:08 51°23.319 2°50.569 0.1 10.7 358 17.2
2009-12-14 08:33:14 51°23.337 2°50.567 0.1 10.7 357 16.8
2009-12-14 08:33:18 51°23.348 2°50.567 359.4 10.7 358 16.2
2009-12-14 08:33:24 51°23.366 2°50.565 359.8 10.6 358 15.8
2009-12-14 08:33:28 51°23.378 2°50.565 0.3 10.7 358 17.6
2009-12-14 08:33:33 51°23.393 2°50.564 0.1 10.7 357 18
2009-12-14 08:33:39 51°23.41 2°50.563 359.9 10.6 358 18.2
2009-12-14 08:33:44 51°23.425 2°50.562 0.1 10.7 359 18.4
2009-12-14 08:33:48 51°23.437 2°50.562 0.7 10.7 358 18.2
2009-12-14 08:33:53 51°23.452 2°50.561 -999 10.7 357 18.5
2009-12-14 08:33:59 51°23.469 2°50.56 359.7 10.7 358 18.3
2009-12-14 08:34:04 51°23.484 2°50.559 0.5 10.7 359 18.4
2009-12-14 08:34:09 51°23.499 2°50.558 0.8 10.7 358 18.7
2009-12-14 08:34:13 51°23.511 2°50.558 0.4 10.7 358 18.1
2009-12-14 08:34:18 51°23.526 2°50.557 0.3 10.7 357 19.1
2009-12-14 08:34:24 51°23.543 2°50.556 359.8 10.6 357 19.7
2009-12-14 08:34:28 51°23.555 2°50.554 359.6 10.6 357 18.7
2009-12-14 08:34:33 51°23.57 2°50.553 359.7 10.6 358 17.7
2009-12-14 08:34:38 51°23.585 2°50.553 0.1 10.7 358 19.1
2009-12-14 08:34:44 51°23.602 2°50.552 0.1 10.6 359 19.5
2009-12-14 08:34:48 51°23.614 2°50.551 0.5 10.7 357 19.6
2009-12-14 08:34:53 51°23.629 2°50.55 359.8 10.6 358 20.5
2009-12-14 08:34:58 51°23.644 2°50.55 0.3 10.7 358 20.5
2009-12-14 08:35:04 51°23.661 2°50.548 0.1 10.7 357 20.5
2009-12-14 08:35:09 51°23.676 2°50.548 0.1 10.7 359 20.8
2009-12-14 08:35:13 51°23.688 2°50.547 0.1 10.8 357 20.1
2009-12-14 08:35:18 51°23.703 2°50.546 359.8 10.8 358 21.1
2009-12-14 08:35:24 51°23.721 2°50.546 0.5 10.7 359 21.5
2009-12-14 08:35:29 51°23.736 2°50.545 0.8 10.7 359 22.2
2009-12-14 08:35:34 51°23.75 2°50.545 1.5 10.6 -999 21.5
2009-12-14 08:35:38 51°23.762 2°50.544 2 10.7 358 21.9
2009-12-14 08:35:44 51°23.78 2°50.544 1.2 10.7 359 21.6
2009-12-14 08:35:48 51°23.792 2°50.544 1.6 10.7 359 21.9
2009-12-14 08:35:53 51°23.807 2°50.542 1.1 10.7 358 22.4
2009-12-14 08:35:59 51°23.825 2°50.542 1.5 10.8 -999 22.8
2009-12-14 08:36:04 51°23.84 2°50.542 2.3 10.7 359 22.5
2009-12-14 08:36:08 51°23.852 2°50.542 2.1 10.7 359 22.8
2009-12-14 08:36:13 51°23.866 2°50.541 2 10.7 359 23.1
2009-12-14 08:36:18 51°23.881 2°50.541 1.7 10.7 359 22.9
2009-12-14 08:36:24 51°23.899 2°50.54 0.8 10.7 357 23.1
2009-12-14 08:36:28 51°23.911 2°50.54 0.5 10.7 359 23.1
2009-12-14 08:36:33 51°23.926 2°50.539 0.8 10.8 357 23.2
2009-12-14 08:36:38 51°23.941 2°50.537 0.1 10.7 357 23.2
2009-12-14 08:36:44 51°23.959 2°50.536 0.1 10.8 357 23.4
2009-12-14 08:36:48 51°23.971 2°50.535 0.1 10.8 357 23.1
2009-12-14 08:36:53 51°23.985 2°50.534 -999 10.7 357 23.4
2009-12-14 08:36:58 51°24 2°50.532 359.7 10.8 357 23.5
2009-12-14 08:37:04 51°24.018 2°50.532 0.2 10.8 358 23.2
2009-12-14 08:37:08 51°24.03 2°50.531 0.5 10.7 357 23.3
2009-12-14 08:37:14 51°24.048 2°50.53 0.6 10.7 357 23.7
2009-12-14 08:37:18 51°24.06 2°50.528 359.9 10.7 356 23.3
2009-12-14 08:37:24 51°24.078 2°50.527 0.1 10.8 358 23.2
2009-12-14 08:37:28 51°24.089 2°50.526 0.5 10.7 357 23.3
2009-12-14 08:37:33 51°24.104 2°50.525 0.1 10.7 357 23.6
2009-12-14 08:37:38 51°24.119 2°50.523 359.6 10.7 356 23.4
2009-12-14 08:37:44 51°24.137 2°50.522 359.4 10.7 357 23.7
2009-12-14 08:37:49 51°24.151 2°50.52 359.9 10.6 357 23.2
2009-12-14 08:37:53 51°24.163 2°50.519 359.7 10.6 357 23.3
2009-12-14 08:37:58 51°24.178 2°50.518 359.7 10.6 357 23.6
2009-12-14 08:38:04 51°24.196 2°50.517 0.1 10.7 357 23.4
2009-12-14 08:38:08 51°24.207 2°50.516 359.7 10.7 357 23.2
2009-12-14 08:38:13 51°24.222 2°50.515 359.8 10.7 357 22.9
2009-12-14 08:38:19 51°24.24 2°50.513 359.6 10.6 357 23
2009-12-14 08:38:24 51°24.255 2°50.512 0.1 10.7 358 23.3
2009-12-14 08:38:28 51°24.267 2°50.512 0.8 10.7 358 23.1
2009-12-14 08:38:33 51°24.282 2°50.511 0.8 10.7 358 23.1
2009-12-14 08:38:38 51°24.296 2°50.511 1.5 10.7 -999 23.2
2009-12-14 08:38:44 51°24.314 2°50.51 1.5 10.8 358 23.3
2009-12-14 08:38:49 51°24.329 2°50.51 1.4 10.7 359 23.6
2009-12-14 08:38:53 51°24.341 2°50.509 1.4 10.8 358 24
2009-12-14 08:38:58 51°24.356 2°50.508 0.9 10.8 358 23.8
2009-12-14 08:39:04 51°24.374 2°50.507 0.7 10.7 357 23.9
2009-12-14 08:39:09 51°24.389 2°50.505 -999 10.7 356 24.1
2009-12-14 08:39:14 51°24.404 2°50.504 359.9 10.8 358 23.9
2009-12-14 08:39:18 51°24.416 2°50.504 0.9 10.7 359 23.7
2009-12-14 08:39:24 51°24.433 2°50.503 0.9 10.7 357 24.3
2009-12-14 08:39:29 51°24.448 2°50.502 1 10.8 359 24.2
2009-12-14 08:39:33 51°24.46 2°50.502 1.3 10.8 358 24
2009-12-14 08:39:38 51°24.475 2°50.501 1.1 10.7 358 23.9
2009-12-14 08:39:44 51°24.493 2°50.5 0.6 10.7 357 24.4
2009-12-14 08:39:49 51°24.508 2°50.498 0.1 10.8 357 24.2
2009-12-14 08:39:54 51°24.523 2°50.498 0.6 10.8 359 24
2009-12-14 08:39:58 51°24.535 2°50.497 1 10.7 358 24.2
2009-12-14 08:40:04 51°24.552 2°50.496 0.8 10.8 358 24.2
2009-12-14 08:40:08 51°24.564 2°50.495 0.5 10.8 358 24.3
2009-12-14 08:40:13 51°24.579 2°50.494 0.1 10.8 357 24.1
2009-12-14 08:40:19 51°24.597 2°50.493 359.6 10.8 358 24.1
2009-12-14 08:40:24 51°24.612 2°50.492 359.8 10.7 357 23.9
2009-12-14 08:40:28 51°24.624 2°50.492 0.4 10.7 359 24.1
2009-12-14 08:40:33 51°24.639 2°50.491 1.2 10.8 359 24.3
2009-12-14 08:40:39 51°24.657 2°50.49 0.9 10.9 358 24.1
2009-12-14 08:40:44 51°24.672 2°50.49 0.8 10.9 359 24.1
2009-12-14 08:40:49 51°24.687 2°50.49 1.2 10.9 359 23.9
2009-12-14 08:40:53 51°24.699 2°50.49 1.6 10.8 1 24.2
2009-12-14 08:40:58 51°24.715 2°50.49 2 10.9 359 24.1
2009-12-14 08:41:04 51°24.733 2°50.489 1.4 10.9 -999 24.1
2009-12-14 08:41:08 51°24.745 2°50.489 1.7 10.9 359 24.3
2009-12-14 08:41:13 51°24.76 2°50.489 1.3 10.9 359 24.3
2009-12-14 08:41:18 51°24.775 2°50.488 1.3 10.9 359 24.4
2009-12-14 08:41:23 51°24.79 2°50.488 1.5 10.9 -999 24
2009-12-14 08:41:29 51°24.808 2°50.487 1.6 10.8 359 24.1
2009-12-14 08:41:33 51°24.82 2°50.487 1.4 10.8 359 24.3
2009-12-14 08:41:38 51°24.835 2°50.486 1 10.9 359 24.2
2009-12-14 08:41:44 51°24.853 2°50.486 1 10.9 359 24.1
2009-12-14 08:41:48 51°24.865 2°50.486 1.4 10.8 359 24.2
2009-12-14 08:41:53 51°24.88 2°50.485 0.9 10.9 358 24.2
2009-12-14 08:41:59 51°24.898 2°50.485 0.8 10.8 -999 23.9
2009-12-14 08:42:04 51°24.913 2°50.484 1 10.8 359 24
2009-12-14 08:42:08 51°24.925 2°50.484 1.3 10.9 359 24.2
2009-12-14 08:42:13 51°24.94 2°50.483 0.8 10.8 358 23.8
2009-12-14 08:42:19 51°24.958 2°50.482 -999 10.8 358 24.3
2009-12-14 08:42:24 51°24.973 2°50.481 359.6 10.8 357 24.3
2009-12-14 08:42:28 51°24.985 2°50.481 359.6 10.9 358 24.3
2009-12-14 08:42:34 51°25.003 2°50.48 359.6 10.8 358 24.1
2009-12-14 08:42:38 51°25.015 2°50.479 359.4 10.8 358 24.1
2009-12-14 08:42:44 51°25.033 2°50.478 359.4 10.8 357 24.1
2009-12-14 08:42:49 51°25.048 2°50.476 359 10.8 356 24.2
2009-12-14 08:42:53 51°25.06 2°50.475 358.5 10.9 358 24
2009-12-14 08:42:58 51°25.076 2°50.475 359.4 10.7 359 24
2009-12-14 08:43:04 51°25.094 2°50.474 -999 10.8 358 24.8
2009-12-14 08:43:08 51°25.105 2°50.474 359.5 10.6 358 24.2
2009-12-14 08:43:13 51°25.12 2°50.473 359.4 10.6 358 24.7
2009-12-14 08:43:17 51°25.132 2°50.472 359.4 10.7 357 24.6
2009-12-14 08:43:24 51°25.153 2°50.47 359 10.7 357 24.6
2009-12-14 08:43:29 51°25.167 2°50.469 358.7 10.8 356 24.6
2009-12-14 08:43:33 51°25.18 2°50.468 358.7 10.8 358 24.4
2009-12-14 08:43:38 51°25.194 2°50.467 359.3 10.8 357 24.4
2009-12-14 08:43:44 51°25.212 2°50.466 358.7 10.8 358 24.7
2009-12-14 08:43:49 51°25.227 2°50.464 359.1 10.9 357 24.6
2009-12-14 08:43:53 51°25.239 2°50.463 359 10.8 357 24.3
2009-12-14 08:43:58 51°25.254 2°50.462 359.1 10.8 357 24.8
2009-12-14 08:44:04 51°25.272 2°50.461 358.8 10.8 357 24.7
2009-12-14 08:44:09 51°25.287 2°50.46 359 10.8 358 24.7
2009-12-14 08:44:14 51°25.302 2°50.459 359.7 10.8 358 25.1
2009-12-14 08:44:18 51°25.314 2°50.458 359.3 10.9 357 25
2009-12-14 08:44:24 51°25.332 2°50.458 359.8 10.9 359 24.8
2009-12-14 08:44:28 51°25.344 2°50.457 359.7 10.9 357 24.7
2009-12-14 08:44:33 51°25.36 2°50.456 359.7 10.8 359 24.7
2009-12-14 08:44:38 51°25.375 2°50.455 359.8 10.9 358 25
2009-12-14 08:44:44 51°25.393 2°50.455 359.8 10.9 359 24.8
2009-12-14 08:44:49 51°25.408 2°50.454 359.7 10.8 357 24.6
2009-12-14 08:44:53 51°25.42 2°50.453 359.5 10.8 359 24.9
2009-12-14 08:44:58 51°25.435 2°50.453 0.1 10.8 358 24.8
2009-12-14 08:45:04 51°25.453 2°50.451 359.7 10.9 358 25
2009-12-14 08:45:09 51°25.468 2°50.451 359.7 10.9 358 24.7
2009-12-14 08:45:13 51°25.48 2°50.45 359.5 10.9 358 24.7
2009-12-14 08:45:19 51°25.498 2°50.449 359.5 10.9 358 24.8
2009-12-14 08:45:24 51°25.513 2°50.449 359.7 10.9 359 24.8
2009-12-14 08:45:28 51°25.525 2°50.448 -999 10.9 358 24.5
2009-12-14 08:45:33 51°25.54 2°50.447 359.5 10.9 358 24.5
2009-12-14 08:45:39 51°25.558 2°50.447 -999 10.9 359 24.8
2009-12-14 08:45:44 51°25.573 2°50.446 0.1 10.9 357 24.6
2009-12-14 08:45:49 51°25.589 2°50.446 359.8 10.9 -999 24.6
2009-12-14 08:45:53 51°25.601 2°50.446 0.7 10.9 -999 24.6
2009-12-14 08:45:58 51°25.616 2°50.445 0.4 10.9 359 24.6
2009-12-14 08:46:04 51°25.634 2°50.445 359.9 10.9 359 24.8
2009-12-14 08:46:09 51°25.649 2°50.444 359.9 10.9 359 24.7
2009-12-14 08:46:13 51°25.661 2°50.444 359.8 10.9 359 24.6
2009-12-14 08:46:18 51°25.676 2°50.444 0.4 10.9 359 25
2009-12-14 08:46:24 51°25.695 2°50.443 359.7 10.9 359 24.7
2009-12-14 08:46:28 51°25.707 2°50.443 0.1 10.9 359 24.5
2009-12-14 08:46:34 51°25.725 2°50.442 359.6 10.9 358 24.4
2009-12-14 08:46:38 51°25.737 2°50.442 0.1 10.8 -999 24.3
2009-12-14 08:46:44 51°25.755 2°50.441 359.7 10.8 358 24.6
2009-12-14 08:46:48 51°25.767 2°50.442 -999 10.9 1 24.7
2009-12-14 08:46:53 51°25.782 2°50.44 0.1 10.9 358 24.5
2009-12-14 08:46:58 51°25.797 2°50.441 0.1 10.9 359 24.5
2009-12-14 08:47:04 51°25.815 2°50.439 359.7 10.9 358 24.6
2009-12-14 08:47:09 51°25.83 2°50.439 359.8 10.9 -999 24.4
2009-12-14 08:47:13 51°25.842 2°50.439 0.5 11 -999 24.5
2009-12-14 08:47:18 51°25.858 2°50.44 1.5 11 1 24.3
2009-12-14 08:47:24 51°25.876 2°50.439 1.4 10.9 359 24.6
2009-12-14 08:47:29 51°25.891 2°50.44 0.8 11 1 24.7
2009-12-14 08:47:33 51°25.903 2°50.44 1.4 10.9 -999 24.6
2009-12-14 08:47:38 51°25.918 2°50.439 0.8 10.9 -999 24.6
2009-12-14 08:47:44 51°25.936 2°50.44 0.7 10.9 1 24.8
2009-12-14 08:47:48 51°25.949 2°50.439 0.6 11 358 24.9
2009-12-14 08:47:53 51°25.964 2°50.439 0.1 10.9 -999 24.4
2009-12-14 08:47:57 51°25.976 2°50.439 -999 10.9 358 24.8
2009-12-14 08:48:03 51°25.994 2°50.438 359.7 10.8 359 24.4
2009-12-14 08:48:09 51°26.012 2°50.437 359.8 10.8 358 24.7
2009-12-14 08:48:13 51°26.024 2°50.437 359.9 10.8 358 24.6
2009-12-14 08:48:18 51°26.039 2°50.436 359.5 10.9 -999 24.8
2009-12-14 08:48:24 51°26.057 2°50.436 0.2 10.9 -999 24.8
2009-12-14 08:48:29 51°26.072 2°50.436 0.8 11 359 24.7
2009-12-14 08:48:34 51°26.088 2°50.435 0.1 10.9 359 24.5
2009-12-14 08:48:38 51°26.099 2°50.435 -999 10.8 -999 24.7
2009-12-14 08:48:44 51°26.117 2°50.435 0.3 10.8 359 24.7
2009-12-14 08:48:48 51°26.129 2°50.434 0.4 10.9 358 24.6
2009-12-14 08:48:53 51°26.144 2°50.433 359.9 10.8 359 24.4
2009-12-14 08:48:58 51°26.159 2°50.433 -999 10.7 359 24.3
2009-12-14 08:49:04 51°26.177 2°50.432 0.1 10.8 359 24.6
2009-12-14 08:49:08 51°26.189 2°50.432 0.1 10.8 359 24.5
2009-12-14 08:49:13 51°26.205 2°50.432 0.1 10.8 359 24.4
2009-12-14 08:49:19 51°26.223 2°50.432 1 10.8 -999 24.6
2009-12-14 08:49:24 51°26.238 2°50.431 0.2 10.8 358 24.5
2009-12-14 08:49:29 51°26.253 2°50.432 0.4 10.8 1 24.5
2009-12-14 08:49:33 51°26.265 2°50.431 0.7 10.9 -999 24.7
2009-12-14 08:49:39 51°26.283 2°50.432 1.5 10.9 1 24.7
2009-12-14 08:49:44 51°26.298 2°50.432 1.5 10.9 -999 24.8
2009-12-14 08:49:48 51°26.31 2°50.433 1.9 10.9 2 24.9
2009-12-14 08:49:53 51°26.325 2°50.433 2.2 10.9 -999 25.1
2009-12-14 08:49:58 51°26.341 2°50.433 1.4 10.9 -999 24.8
2009-12-14 08:50:04 51°26.359 2°50.432 0.8 10.9 -999 24.9
2009-12-14 08:50:09 51°26.374 2°50.432 0.7 10.9 359 25.2
2009-12-14 08:50:13 51°26.386 2°50.431 0.5 10.9 359 25
2009-12-14 08:50:18 51°26.401 2°50.432 1.5 10.9 1 24.9
2009-12-14 08:50:24 51°26.419 2°50.431 1.3 11 359 25.1
2009-12-14 08:50:28 51°26.431 2°50.431 0.8 10.9 -999 24.7
2009-12-14 08:50:33 51°26.446 2°50.431 -999 10.9 359 25
2009-12-14 08:50:39 51°26.464 2°50.43 359.9 10.9 359 25
2009-12-14 08:50:44 51°26.479 2°50.43 359.9 10.9 359 24.4
2009-12-14 08:50:49 51°26.494 2°50.429 -999 10.8 359 24.5
2009-12-14 08:50:53 51°26.506 2°50.429 0.3 10.9 359 24.8
2009-12-14 08:50:58 51°26.522 2°50.428 359.7 10.9 358 24.2
2009-12-14 08:51:04 51°26.54 2°50.428 359.4 10.9 359 23.3
2009-12-14 08:51:08 51°26.552 2°50.427 359.5 10.9 359 24.7
2009-12-14 08:51:14 51°26.57 2°50.427 -999 10.9 358 25
2009-12-14 08:51:18 51°26.582 2°50.426 359.2 10.9 358 24.2
2009-12-14 08:51:24 51°26.6 2°50.425 358.9 10.9 358 24.6
2009-12-14 08:51:28 51°26.612 2°50.425 359.8 10.9 359 24.6
2009-12-14 08:51:33 51°26.627 2°50.424 359.9 10.9 358 23
2009-12-14 08:51:39 51°26.645 2°50.424 0.1 10.9 -999 20.6
2009-12-14 08:51:44 51°26.66 2°50.423 359.9 10.9 358 24.4
2009-12-14 08:51:49 51°26.676 2°50.423 359.9 10.9 -999 24.8
2009-12-14 08:51:53 51°26.688 2°50.423 0.1 10.9 358 24